CFM weather

Conklin (Leismer) Airport
Conklin, Alberta, Canada

Public forecast

Using degrees Celsius for public forecast. Weather courtesy of forecast.io.

Closest aviation weather report (METAR) to Conklin (Leismer) Airport

Closest report is Fort McMurray Airport, 57.6 nm (106.6 km) N. Retrieved 2020/01/29 20:00 UTC (4 minutes ago):

CYMM 292000Z AUTO 10008KT 9SM SCT230 M04/M07 A2971 RMK PRESFR SLP091

Closest aviation forecast (TAF) to Conklin (Leismer) Airport

Closest forecast is Fort McMurray Airport, 57.6 nm (106.6 km) N. Retrieved 2020/01/29 19:39 UTC (25 minutes ago):

TAF CYMM 291838Z 2919/3007 12006KT P6SM SKC FM292200 16008KT P6SM SCT120 BKN200 FM300100 18006KT P6SM -SN SCT020 BKN050 TEMPO 3001/3006 2SM -SHSN OVC020 FM300600 22010KT P6SM SCT050 BKN120 RMK FCST BASED ON AUTO OBS NXT FCST BY 300100Z